createdAt,value
2019-02-23T00:01:54.475Z,57.45
2019-02-23T00:06:57.057Z,46.30
2019-02-23T00:11:59.601Z,37.48
2019-02-23T00:17:02.152Z,44.58
2019-02-23T00:22:04.725Z,51.05
2019-02-23T00:27:07.275Z,38.78
2019-02-23T00:37:11.933Z,37.13
2019-02-23T00:42:14.463Z,39.13
2019-02-23T00:47:17.028Z,38.42
2019-02-23T00:57:22.025Z,37.38
2019-02-23T01:02:24.586Z,76.35
2019-02-23T01:07:27.131Z,96.17
2019-02-23T01:12:29.694Z,166.62
2019-02-23T01:17:32.228Z,52.43
2019-02-23T01:22:34.771Z,65.10
2019-02-23T01:32:39.540Z,41.90
2019-02-23T01:42:44.212Z,32.57
2019-02-23T01:47:46.757Z,50.85
2019-02-23T01:52:49.317Z,56.40
2019-02-23T01:57:51.839Z,79.20
2019-02-23T02:02:54.454Z,37.67
2019-02-23T02:12:59.155Z,24.80
2019-02-23T02:18:01.793Z,22.87
2019-02-23T02:28:06.468Z,25.33
2019-02-23T02:33:09.014Z,24.35
2019-02-23T02:38:11.557Z,26.30
2019-02-23T02:48:16.234Z,20.32
2019-02-23T02:53:18.762Z,23.35
2019-02-23T02:58:21.300Z,25.75
2019-02-23T03:03:23.850Z,20.20
2019-02-23T03:08:27.849Z,23.77
2019-02-23T03:13:30.387Z,21.95
2019-02-23T03:18:32.922Z,21.07
2019-02-23T03:23:35.468Z,19.80
2019-02-23T03:28:38.004Z,19.80
2019-02-23T03:33:40.550Z,24.80
2019-02-23T03:38:43.087Z,23.12
2019-02-23T03:49:03.021Z,28.05
2019-02-23T03:54:08.877Z,25.50
2019-02-23T03:59:14.755Z,23.93
2019-02-23T04:04:20.754Z,21.23
2019-02-23T04:09:26.703Z,23.67
2019-02-23T04:14:32.653Z,22.42
2019-02-23T04:19:38.515Z,23.18
2019-02-23T04:24:44.385Z,23.42
2019-02-23T04:29:50.321Z,26.47
2019-02-23T04:34:56.179Z,20.62
2019-02-23T04:40:02.063Z,21.00
2019-02-23T04:45:07.977Z,18.17
2019-02-23T04:50:13.861Z,21.17
2019-02-23T04:55:19.716Z,23.18
2019-02-23T05:00:25.572Z,17.52
2019-02-23T05:05:31.725Z,22.25
2019-02-23T05:10:37.608Z,21.75
2019-02-23T05:15:43.468Z,18.67
2019-02-23T05:20:49.315Z,19.67
2019-02-23T05:25:55.268Z,19.95
2019-02-23T05:31:01.150Z,18.92
2019-02-23T05:36:07.016Z,21.42
2019-02-23T05:41:12.857Z,20.12
2019-02-23T05:46:18.719Z,17.82
2019-02-23T05:51:24.567Z,20.60
2019-02-23T05:56:30.503Z,22.32
2019-02-23T06:01:36.376Z,26.20
2019-02-23T06:06:42.248Z,19.12
2019-02-23T06:11:48.176Z,20.43
2019-02-23T06:16:54.116Z,20.52
2019-02-23T06:22:00.397Z,21.02
2019-02-23T06:27:06.260Z,23.60
2019-02-23T06:32:12.548Z,21.90
2019-02-23T06:37:18.991Z,19.32
2019-02-23T06:42:26.070Z,23.83
2019-02-23T06:47:32.228Z,18.90
2019-02-23T06:52:38.200Z,19.97
2019-02-23T06:57:44.074Z,16.93
2019-02-23T07:02:50.014Z,19.35
2019-02-23T07:07:56.020Z,19.23
2019-02-23T07:13:02.348Z,23.67
2019-02-23T07:18:08.572Z,36.90
2019-02-23T07:23:14.753Z,30.27
2019-02-23T07:28:21.171Z,37.50
2019-02-23T07:33:32.760Z,27.85
2019-02-23T07:38:35.625Z,47.85
2019-02-23T07:43:41.480Z,26.68
2019-02-23T07:48:47.441Z,27.87
2019-02-23T07:53:53.487Z,22.42
2019-02-23T07:58:59.652Z,24.95
2019-02-23T08:04:05.530Z,23.65
2019-02-23T08:09:11.964Z,22.85
2019-02-23T08:14:17.867Z,26.17
2019-02-23T08:19:23.751Z,30.02
2019-02-23T08:24:29.618Z,28.52
2019-02-23T08:29:35.494Z,23.35
2019-02-23T08:34:41.396Z,24.20
2019-02-23T08:39:47.258Z,22.80
2019-02-23T08:44:53.134Z,20.97
2019-02-23T08:49:59.012Z,21.95
2019-02-23T08:55:05.080Z,25.50
2019-02-23T09:00:13.588Z,23.15
2019-02-23T09:05:19.541Z,21.50
2019-02-23T09:10:25.433Z,19.60
2019-02-23T09:15:31.338Z,21.87
2019-02-23T09:20:37.205Z,16.80
2019-02-23T09:25:43.077Z,21.73
2019-02-23T09:30:49.370Z,23.12
2019-02-23T09:35:55.265Z,23.32
2019-02-23T09:41:01.139Z,18.25
2019-02-23T09:46:07.127Z,18.02
2019-02-23T09:51:12.983Z,15.03
2019-02-23T09:56:18.941Z,21.82
2019-02-23T10:01:24.872Z,12.47
2019-02-23T10:06:30.733Z,14.53
2019-02-23T10:11:36.609Z,16.97
2019-02-23T10:16:42.487Z,20.45
2019-02-23T10:21:48.392Z,12.30
2019-02-23T10:26:54.262Z,14.98
2019-02-23T10:32:00.127Z,11.12
2019-02-23T10:37:05.998Z,13.50
2019-02-23T10:42:11.902Z,9.25
2019-02-23T10:47:18.273Z,9.90
2019-02-23T10:52:24.216Z,10.50
2019-02-23T10:57:30.128Z,10.55
2019-02-23T11:02:36.120Z,15.43
2019-02-23T11:07:42.037Z,17.95
2019-02-23T11:12:47.913Z,20.25
2019-02-23T11:17:53.863Z,22.67
2019-02-23T11:22:59.742Z,22.58
2019-02-23T11:28:05.724Z,23.40
2019-02-23T11:33:11.579Z,14.93
2019-02-23T11:38:17.510Z,17.20
2019-02-23T11:43:23.379Z,15.08
2019-02-23T11:48:29.273Z,14.30
2019-02-23T11:53:35.192Z,13.22
2019-02-23T11:58:41.053Z,11.88
2019-02-23T12:03:46.963Z,9.93
2019-02-23T12:08:52.839Z,16.95
2019-02-23T12:13:58.704Z,10.35
2019-02-23T12:19:04.593Z,17.75
2019-02-23T12:24:10.470Z,11.38
2019-02-23T12:29:16.358Z,13.93
2019-02-23T12:34:22.237Z,15.05
2019-02-23T12:39:28.082Z,11.93
2019-02-23T12:44:33.947Z,11.73
2019-02-23T12:49:39.888Z,11.75
2019-02-23T12:54:45.830Z,11.00
2019-02-23T12:59:51.751Z,11.20
2019-02-23T13:04:57.628Z,11.65
2019-02-23T13:10:03.513Z,12.47
2019-02-23T13:15:27.545Z,9.93
2019-02-23T13:21:32.521Z,12.93
2019-02-23T13:27:08.312Z,14.38
2019-02-23T13:32:35.574Z,11.33
2019-02-23T13:38:15.827Z,58.87
2019-02-23T13:44:01.563Z,14.23
2019-02-23T13:49:58.387Z,12.80
2019-02-23T13:55:41.832Z,12.70
2019-02-23T14:01:38.427Z,14.65
2019-02-23T14:07:43.153Z,15.80
2019-02-23T14:13:14.171Z,13.68
2019-02-23T14:19:02.645Z,9.33
2019-02-23T14:25:04.432Z,10.82
2019-02-23T14:31:06.158Z,9.78
2019-02-23T14:36:27.222Z,10.25
2019-02-23T14:42:03.313Z,11.55
2019-02-23T14:47:46.696Z,12.88
2019-02-23T14:53:28.101Z,25.37
2019-02-23T14:59:22.737Z,20.53
2019-02-23T15:05:06.627Z,26.60
2019-02-23T15:10:55.145Z,23.60
2019-02-23T15:16:40.397Z,29.20
2019-02-23T15:22:14.334Z,24.63
2019-02-23T15:28:24.854Z,24.65
2019-02-23T15:33:48.963Z,28.98
2019-02-23T15:40:00.280Z,32.73
2019-02-23T15:45:42.964Z,28.87
2019-02-23T15:50:48.874Z,28.92
2019-02-23T15:55:54.704Z,34.75
2019-02-23T16:01:00.582Z,39.10
2019-02-23T16:06:06.446Z,38.33
2019-02-23T16:11:12.585Z,38.50
2019-02-23T16:16:18.822Z,37.75
2019-02-23T16:21:24.709Z,35.78
2019-02-23T16:26:30.658Z,34.10
2019-02-23T16:31:36.526Z,30.75
2019-02-23T16:36:42.384Z,40.63
2019-02-23T16:41:48.260Z,40.88
2019-02-23T16:46:54.146Z,32.90
2019-02-23T16:52:00.032Z,39.10
2019-02-23T16:57:06.217Z,38.53
2019-02-23T17:02:12.100Z,46.75
2019-02-23T17:07:18.035Z,40.92
2019-02-23T17:12:23.933Z,43.75
2019-02-23T17:17:29.806Z,46.42
2019-02-23T17:22:35.687Z,48.05
2019-02-23T17:27:41.578Z,47.50
2019-02-23T17:32:47.435Z,55.12
2019-02-23T17:37:53.323Z,63.70
2019-02-23T17:42:59.198Z,57.35
2019-02-23T17:48:05.155Z,51.28
2019-02-23T17:53:11.025Z,60.92
2019-02-23T17:58:16.917Z,56.28
2019-02-23T18:03:22.816Z,53.87
2019-02-23T18:08:28.678Z,60.43
2019-02-23T18:13:34.573Z,61.00
2019-02-23T18:18:40.494Z,63.65
2019-02-23T18:23:46.559Z,64.07
2019-02-23T18:28:52.417Z,69.17
2019-02-23T18:33:58.307Z,61.08
2019-02-23T18:39:04.586Z,64.42
2019-02-23T18:44:10.475Z,64.03
2019-02-23T18:49:16.335Z,60.38
2019-02-23T18:54:22.259Z,69.92
2019-02-23T18:59:28.148Z,64.82
2019-02-23T19:04:34.068Z,84.42
2019-02-23T19:09:40.050Z,94.28
2019-02-23T19:14:45.946Z,91.02
2019-02-23T19:19:51.920Z,99.32
2019-02-23T19:24:57.792Z,98.05
2019-02-23T19:30:03.678Z,75.52
2019-02-23T19:35:09.664Z,79.82
2019-02-23T19:40:15.526Z,85.75
2019-02-23T19:45:21.912Z,82.12
2019-02-23T19:50:34.393Z,86.87
2019-02-23T19:55:40.250Z,85.83
2019-02-23T20:00:46.145Z,84.90
2019-02-23T20:05:52.037Z,83.97
2019-02-23T20:10:57.937Z,131.35
2019-02-23T20:16:03.790Z,110.35
2019-02-23T20:21:09.670Z,115.20
2019-02-23T20:26:16.522Z,95.72
2019-02-23T20:31:22.461Z,102.87
2019-02-23T20:36:28.330Z,86.97
2019-02-23T20:41:34.219Z,88.07
2019-02-23T20:46:40.040Z,71.20
2019-02-23T20:51:45.904Z,67.62
2019-02-23T20:56:51.776Z,61.60
2019-02-23T21:01:57.642Z,72.30
2019-02-23T21:07:03.510Z,68.28
2019-02-23T21:12:09.512Z,65.52
2019-02-23T21:17:15.373Z,71.53
2019-02-23T21:22:21.274Z,66.82
2019-02-23T21:27:27.127Z,63.80
2019-02-23T21:32:33.037Z,55.60
2019-02-23T21:37:38.905Z,62.00
2019-02-23T21:42:44.776Z,65.03
2019-02-23T21:47:50.629Z,61.58
2019-02-23T21:52:56.504Z,70.22
2019-02-23T21:58:02.510Z,71.62
2019-02-23T22:03:08.377Z,71.82
2019-02-23T22:08:14.294Z,63.28
2019-02-23T22:13:20.146Z,60.20
2019-02-23T22:18:26.082Z,54.65
2019-02-23T22:23:31.978Z,54.15
2019-02-23T22:28:37.827Z,62.60
2019-02-23T22:33:43.691Z,64.65
2019-02-23T22:38:49.579Z,65.72
2019-02-23T22:43:55.504Z,61.50
2019-02-23T22:49:01.800Z,56.23
2019-02-23T22:54:07.750Z,63.52
2019-02-23T22:59:13.639Z,73.57
2019-02-23T23:04:19.899Z,82.47
2019-02-23T23:09:25.764Z,84.03
2019-02-23T23:14:31.604Z,82.92
2019-02-23T23:19:37.579Z,70.72
2019-02-23T23:24:43.451Z,61.85
2019-02-23T23:29:49.319Z,61.05
2019-02-23T23:34:55.171Z,60.55
2019-02-23T23:40:01.041Z,54.27
2019-02-23T23:45:07.022Z,50.25
2019-02-23T23:50:12.884Z,57.58
2019-02-23T23:55:18.730Z,50.40
